createdAt,value
2023-03-30T00:01:21.624Z,4.65
2023-03-30T00:03:49.878Z,4.75
2023-03-30T00:06:22.843Z,5.03
2023-03-30T00:08:53.563Z,4.40
2023-03-30T00:11:23.256Z,4.97
2023-03-30T00:13:53.474Z,5.07
2023-03-30T00:16:21.927Z,4.78
2023-03-30T00:18:48.983Z,5.07
2023-03-30T00:21:18.438Z,5.70
2023-03-30T00:23:47.857Z,5.25
2023-03-30T00:26:15.408Z,5.18
2023-03-30T00:28:42.879Z,4.80
2023-03-30T00:31:11.453Z,5.18
2023-03-30T00:33:46.567Z,5.60
2023-03-30T00:36:15.895Z,6.00
2023-03-30T00:38:42.936Z,6.28
2023-03-30T00:41:09.874Z,5.97
2023-03-30T00:43:56.147Z,6.47
2023-03-30T00:46:24.053Z,6.23
2023-03-30T00:48:51.432Z,6.53
2023-03-30T00:51:19.492Z,6.60
2023-03-30T00:53:49.267Z,6.97
2023-03-30T00:56:19.486Z,6.55
2023-03-30T00:58:46.892Z,6.70
2023-03-30T01:01:18.926Z,6.93
2023-03-30T01:03:48.432Z,6.53
2023-03-30T01:06:24.390Z,7.22
2023-03-30T01:08:53.260Z,7.10
2023-03-30T01:11:21.266Z,6.57
2023-03-30T01:13:53.124Z,7.20
2023-03-30T01:16:41.873Z,6.80
2023-03-30T01:19:26.746Z,6.45
2023-03-30T01:22:04.763Z,6.78
2023-03-30T01:24:49.046Z,6.53
2023-03-30T01:27:40.296Z,6.70
2023-03-30T01:30:22.393Z,6.72
2023-03-30T01:33:17.017Z,6.22
2023-03-30T01:35:53.203Z,6.57
2023-03-30T01:38:38.783Z,6.10
2023-03-30T01:41:34.110Z,5.75
2023-03-30T01:44:09.924Z,6.35
2023-03-30T01:46:46.139Z,6.80
2023-03-30T01:49:33.320Z,5.47
2023-03-30T01:52:02.868Z,5.60
2023-03-30T01:54:44.068Z,5.93
2023-03-30T01:57:17.399Z,5.90
2023-03-30T01:59:53.405Z,6.12
2023-03-30T02:02:22.674Z,5.90
2023-03-30T02:04:53.855Z,5.70
2023-03-30T02:07:27.923Z,6.15
2023-03-30T02:09:59.745Z,6.20
2023-03-30T02:12:30.145Z,6.00
2023-03-30T02:15:02.031Z,5.78
2023-03-30T02:17:30.582Z,5.60
2023-03-30T02:19:59.187Z,5.18
2023-03-30T02:22:27.388Z,5.82
2023-03-30T02:24:56.424Z,5.62
2023-03-30T02:27:25.147Z,4.90
2023-03-30T02:29:52.644Z,5.27
2023-03-30T02:32:30.022Z,5.10
2023-03-30T02:35:09.363Z,5.55
2023-03-30T02:38:14.416Z,5.10
2023-03-30T02:41:22.565Z,5.10
2023-03-30T02:44:04.313Z,6.00
2023-03-30T02:47:03.921Z,4.93
2023-03-30T02:49:49.732Z,5.18
2023-03-30T02:53:15.093Z,4.82
2023-03-30T02:56:12.782Z,5.18
2023-03-30T02:58:56.730Z,4.97
2023-03-30T03:01:36.486Z,5.10
2023-03-30T03:04:05.580Z,5.25
2023-03-30T03:06:33.150Z,5.03
2023-03-30T03:09:00.551Z,5.18
2023-03-30T03:11:27.576Z,5.17
2023-03-30T03:13:55.729Z,5.18
2023-03-30T03:16:22.842Z,4.78
2023-03-30T03:18:57.741Z,5.07
2023-03-30T03:21:24.735Z,4.93
2023-03-30T03:23:51.598Z,4.23
2023-03-30T03:26:18.707Z,5.00
2023-03-30T03:28:45.705Z,4.65
2023-03-30T03:31:14.109Z,4.47
2023-03-30T03:33:41.185Z,4.43
2023-03-30T03:36:08.571Z,4.17
2023-03-30T03:38:36.343Z,4.25
2023-03-30T03:41:04.569Z,4.53
2023-03-30T03:43:31.740Z,4.28
2023-03-30T03:45:58.764Z,5.15
2023-03-30T03:48:25.818Z,5.23
2023-03-30T03:50:56.020Z,5.28
2023-03-30T03:53:24.284Z,5.45
2023-03-30T03:55:52.377Z,5.30
2023-03-30T03:58:19.804Z,5.12
2023-03-30T04:00:47.274Z,4.40
2023-03-30T04:03:14.319Z,4.35
2023-03-30T04:05:41.960Z,4.93
2023-03-30T04:08:12.935Z,4.40
2023-03-30T04:10:41.678Z,4.47
2023-03-30T04:13:08.650Z,4.03
2023-03-30T04:15:36.000Z,4.35
2023-03-30T04:18:05.293Z,3.90
2023-03-30T04:20:33.198Z,4.07
2023-03-30T04:23:01.934Z,4.30
2023-03-30T04:25:29.393Z,4.77
2023-03-30T04:27:57.302Z,4.60
2023-03-30T04:30:24.578Z,4.60
2023-03-30T04:33:10.078Z,4.82
2023-03-30T04:35:36.990Z,4.97
2023-03-30T04:38:03.858Z,5.23
2023-03-30T04:40:30.787Z,5.10
2023-03-30T04:43:02.811Z,5.20
2023-03-30T04:45:31.211Z,5.12
2023-03-30T04:47:58.426Z,5.80
2023-03-30T04:50:26.155Z,5.10
2023-03-30T04:52:53.399Z,5.00
2023-03-30T04:55:20.370Z,4.93
2023-03-30T04:57:47.368Z,5.10
2023-03-30T05:00:14.925Z,5.55
2023-03-30T05:02:41.864Z,5.30
2023-03-30T05:05:09.246Z,5.25
2023-03-30T05:07:36.160Z,4.93
2023-03-30T05:10:03.235Z,5.30
2023-03-30T05:12:36.777Z,5.82
2023-03-30T05:15:04.675Z,6.30
2023-03-30T05:17:34.954Z,5.80
2023-03-30T05:20:02.324Z,5.93
2023-03-30T05:22:29.308Z,7.72
2023-03-30T05:24:56.191Z,7.30
2023-03-30T05:27:23.009Z,6.70
2023-03-30T05:29:49.848Z,6.25
2023-03-30T05:32:16.735Z,6.12
2023-03-30T05:34:43.529Z,6.57
2023-03-30T05:37:10.546Z,6.30
2023-03-30T05:39:37.876Z,6.70
2023-03-30T05:42:05.690Z,6.40
2023-03-30T05:44:32.484Z,6.70
2023-03-30T05:46:59.607Z,6.70
2023-03-30T05:49:26.500Z,7.97
2023-03-30T05:51:53.876Z,6.80
2023-03-30T05:54:20.747Z,7.12
2023-03-30T05:56:48.475Z,6.18
2023-03-30T05:59:17.094Z,7.10
2023-03-30T06:01:45.911Z,7.43
2023-03-30T06:04:13.195Z,7.50
2023-03-30T06:06:40.088Z,9.18
2023-03-30T06:09:06.904Z,7.80
2023-03-30T06:11:34.270Z,7.22
2023-03-30T06:14:01.263Z,7.15
2023-03-30T06:16:29.239Z,6.87
2023-03-30T06:18:56.208Z,6.82
2023-03-30T06:21:23.308Z,6.90
2023-03-30T06:23:50.345Z,6.32
2023-03-30T06:26:17.221Z,6.28
2023-03-30T06:28:44.437Z,6.80
2023-03-30T06:31:12.081Z,6.15
2023-03-30T06:33:41.571Z,6.60
2023-03-30T06:36:15.030Z,5.57
2023-03-30T06:38:43.729Z,5.35
2023-03-30T06:41:12.671Z,6.10
2023-03-30T06:43:40.029Z,5.93
2023-03-30T06:46:08.389Z,6.47
2023-03-30T06:48:35.840Z,6.15
2023-03-30T06:51:04.164Z,6.28
2023-03-30T06:53:32.550Z,6.70
2023-03-30T06:55:59.387Z,6.25
2023-03-30T06:58:27.678Z,6.12
2023-03-30T07:00:54.728Z,6.12
2023-03-30T07:03:21.631Z,5.75
2023-03-30T07:05:52.474Z,6.33
2023-03-30T07:08:20.228Z,5.55
2023-03-30T07:10:48.605Z,6.30
2023-03-30T07:13:17.050Z,5.95
2023-03-30T07:15:44.937Z,5.72
2023-03-30T07:18:11.893Z,6.37
2023-03-30T07:20:39.162Z,5.90
2023-03-30T07:23:06.584Z,6.22
2023-03-30T07:25:33.490Z,6.10
2023-03-30T07:28:00.368Z,6.18
2023-03-30T07:30:27.617Z,6.57
2023-03-30T07:32:56.900Z,5.97
2023-03-30T07:35:25.451Z,5.50
2023-03-30T07:37:52.538Z,5.45
2023-03-30T07:40:21.428Z,6.18
2023-03-30T07:42:48.465Z,4.53
2023-03-30T07:45:16.571Z,4.57
2023-03-30T07:47:43.794Z,4.75
2023-03-30T07:50:11.032Z,4.20
2023-03-30T07:52:38.143Z,4.00
2023-03-30T07:55:05.635Z,4.40
2023-03-30T07:57:32.552Z,5.12
2023-03-30T07:59:59.648Z,4.45
2023-03-30T08:02:27.239Z,4.05
2023-03-30T08:04:54.599Z,4.32
2023-03-30T08:07:21.594Z,3.83
2023-03-30T08:09:48.784Z,4.20
2023-03-30T08:12:16.336Z,3.83
2023-03-30T08:14:43.326Z,3.97
2023-03-30T08:17:10.293Z,2.67
2023-03-30T08:19:37.342Z,4.17
2023-03-30T08:22:04.947Z,4.60
2023-03-30T08:24:32.029Z,4.57
2023-03-30T08:26:58.979Z,4.68
2023-03-30T08:29:26.008Z,4.40
2023-03-30T08:31:52.961Z,4.60
2023-03-30T08:34:20.041Z,4.62
2023-03-30T08:36:46.907Z,4.53
2023-03-30T08:39:13.770Z,4.50
2023-03-30T08:41:41.692Z,3.85
2023-03-30T08:44:30.500Z,4.23
2023-03-30T08:46:58.286Z,4.47
2023-03-30T08:49:26.762Z,4.07
2023-03-30T08:51:55.383Z,4.12
2023-03-30T08:54:23.405Z,3.10
2023-03-30T08:57:18.972Z,4.30
2023-03-30T09:00:06.698Z,3.95
2023-03-30T09:02:48.217Z,5.05
2023-03-30T09:05:26.481Z,4.18
2023-03-30T09:08:10.295Z,4.57
2023-03-30T09:10:41.723Z,4.40
2023-03-30T09:13:16.958Z,4.57
2023-03-30T09:15:53.829Z,4.22
2023-03-30T09:18:32.771Z,4.05
2023-03-30T09:21:01.570Z,4.18
2023-03-30T09:23:31.121Z,4.27
2023-03-30T09:26:26.370Z,4.62
2023-03-30T09:28:59.948Z,4.47
2023-03-30T09:31:41.385Z,5.35
2023-03-30T09:34:29.745Z,4.07
2023-03-30T09:37:18.580Z,4.47
2023-03-30T09:39:47.068Z,4.68
2023-03-30T09:42:38.138Z,4.78
2023-03-30T09:45:17.450Z,5.05
2023-03-30T09:47:44.366Z,5.18
2023-03-30T09:50:12.687Z,4.70
2023-03-30T09:52:40.688Z,4.30
2023-03-30T09:55:22.830Z,4.40
2023-03-30T09:57:53.609Z,4.75
2023-03-30T10:00:25.236Z,4.87
2023-03-30T10:03:00.981Z,2.93
2023-03-30T10:05:28.959Z,4.62
2023-03-30T10:08:03.161Z,4.15
2023-03-30T10:10:36.625Z,4.90
2023-03-30T10:13:06.386Z,4.90
2023-03-30T10:15:38.199Z,5.00
2023-03-30T10:18:27.816Z,5.20
2023-03-30T10:21:05.862Z,5.40
2023-03-30T10:23:45.054Z,5.28
2023-03-30T10:26:19.373Z,4.30
2023-03-30T10:29:01.166Z,5.27
2023-03-30T10:31:28.525Z,4.90
2023-03-30T10:33:59.162Z,5.00
2023-03-30T10:36:35.268Z,5.30
2023-03-30T10:39:13.660Z,5.05
2023-03-30T10:41:42.300Z,5.80
2023-03-30T10:44:36.966Z,5.40
2023-03-30T10:47:31.928Z,5.40
2023-03-30T10:50:17.612Z,4.93
2023-03-30T10:52:59.107Z,5.20
2023-03-30T10:55:32.595Z,4.73
2023-03-30T10:58:30.275Z,5.35
2023-03-30T11:01:09.248Z,4.60
2023-03-30T11:03:38.938Z,4.97
2023-03-30T11:06:24.702Z,5.25
2023-03-30T11:08:54.659Z,5.50
2023-03-30T11:11:23.895Z,4.85
2023-03-30T11:14:02.011Z,5.68
2023-03-30T11:16:31.904Z,5.32
2023-03-30T11:19:14.099Z,5.78
2023-03-30T11:21:53.774Z,5.50
2023-03-30T11:24:23.038Z,5.50
2023-03-30T11:26:56.130Z,5.62
2023-03-30T11:29:35.481Z,5.80
2023-03-30T11:32:24.794Z,7.20
2023-03-30T11:35:07.297Z,4.70
2023-03-30T11:37:42.588Z,6.43
2023-03-30T11:40:20.682Z,5.15
2023-03-30T11:42:48.036Z,6.20
2023-03-30T11:45:53.395Z,5.70
2023-03-30T11:48:31.881Z,5.70
2023-03-30T11:51:10.582Z,5.85
2023-03-30T11:53:46.269Z,6.53
2023-03-30T11:56:43.779Z,6.12
2023-03-30T11:59:17.105Z,6.07
2023-03-30T12:01:56.325Z,5.33
2023-03-30T12:04:39.149Z,6.18
2023-03-30T12:07:16.277Z,5.60
2023-03-30T12:09:52.841Z,5.30
2023-03-30T12:12:32.918Z,5.70
2023-03-30T12:15:19.236Z,5.50
2023-03-30T12:17:58.601Z,5.90
2023-03-30T12:20:32.303Z,4.87
2023-03-30T12:23:05.068Z,6.20
2023-03-30T12:26:03.133Z,5.60
2023-03-30T12:29:44.414Z,5.73
2023-03-30T12:31:59.246Z,5.82
2023-03-30T12:34:28.909Z,6.50
2023-03-30T12:37:14.699Z,5.57
2023-03-30T12:39:50.501Z,6.20
2023-03-30T12:42:26.727Z,5.70
2023-03-30T12:45:07.329Z,5.50
2023-03-30T12:48:14.405Z,5.68
2023-03-30T12:50:56.607Z,5.60
2023-03-30T12:53:47.296Z,5.55
2023-03-30T12:57:11.161Z,5.73
2023-03-30T13:00:07.867Z,6.18
2023-03-30T13:02:55.164Z,6.15
2023-03-30T13:05:31.198Z,6.18
2023-03-30T13:08:04.267Z,6.07
2023-03-30T13:10:31.152Z,6.00
2023-03-30T13:13:01.562Z,6.37
2023-03-30T13:15:40.373Z,6.80
2023-03-30T13:18:09.872Z,6.45
2023-03-30T13:20:56.630Z,6.57
2023-03-30T13:23:26.343Z,5.87
2023-03-30T13:26:33.857Z,6.12
2023-03-30T13:29:11.942Z,6.10
2023-03-30T13:32:07.649Z,6.45
2023-03-30T13:35:05.529Z,6.05
2023-03-30T13:37:48.768Z,6.37
2023-03-30T13:40:38.570Z,6.57
2023-03-30T13:43:11.387Z,6.50
2023-03-30T13:45:46.416Z,5.75
2023-03-30T13:48:22.497Z,6.15
2023-03-30T13:50:59.013Z,5.87
2023-03-30T13:53:38.228Z,5.62
2023-03-30T13:56:09.669Z,6.55
2023-03-30T13:58:39.692Z,6.40
2023-03-30T14:01:11.815Z,6.68
2023-03-30T14:03:44.329Z,6.33
2023-03-30T14:06:14.504Z,6.68
2023-03-30T14:08:47.972Z,6.80
2023-03-30T14:11:20.453Z,5.47
2023-03-30T14:13:52.446Z,6.60
2023-03-30T14:16:23.804Z,6.23
2023-03-30T14:18:51.461Z,7.07
2023-03-30T14:21:24.163Z,6.80
2023-03-30T14:23:53.398Z,6.00
2023-03-30T14:26:26.640Z,17.70
2023-03-30T14:28:56.625Z,6.67
2023-03-30T14:31:23.981Z,7.32
2023-03-30T14:33:51.131Z,8.45
2023-03-30T14:36:20.656Z,8.73
2023-03-30T14:38:51.673Z,6.80
2023-03-30T14:41:23.349Z,7.57
2023-03-30T14:44:02.370Z,7.30
2023-03-30T14:46:41.653Z,6.00
2023-03-30T14:49:23.221Z,6.15
2023-03-30T14:51:52.179Z,7.20
2023-03-30T14:54:23.327Z,7.30
2023-03-30T14:56:57.719Z,6.35
2023-03-30T14:59:27.407Z,7.47
2023-03-30T15:01:56.638Z,6.93
2023-03-30T15:04:29.095Z,6.12
2023-03-30T15:06:56.633Z,5.80
2023-03-30T15:09:25.094Z,5.60
2023-03-30T15:11:58.844Z,6.12
2023-03-30T15:14:27.273Z,5.82
2023-03-30T15:16:57.079Z,6.15
2023-03-30T15:19:32.029Z,6.30
2023-03-30T15:22:03.534Z,5.50
2023-03-30T15:24:37.485Z,6.07
2023-03-30T15:27:07.555Z,6.40
2023-03-30T15:29:34.689Z,6.30
2023-03-30T15:32:11.567Z,6.37
2023-03-30T15:34:59.716Z,5.55
2023-03-30T15:37:27.887Z,5.60
2023-03-30T15:39:55.216Z,6.22
2023-03-30T15:42:42.136Z,6.05
2023-03-30T15:45:14.045Z,6.60
2023-03-30T15:47:41.882Z,7.28
2023-03-30T15:50:14.657Z,6.82
2023-03-30T15:52:44.784Z,7.03
2023-03-30T15:55:22.204Z,6.75
2023-03-30T15:57:52.328Z,6.80
2023-03-30T16:00:22.011Z,7.70
2023-03-30T16:02:57.941Z,7.47
2023-03-30T16:05:31.753Z,9.48
2023-03-30T16:07:59.739Z,6.53
2023-03-30T16:10:32.530Z,6.37
2023-03-30T16:13:01.254Z,7.12
2023-03-30T16:15:31.762Z,7.55
2023-03-30T16:17:59.133Z,8.20
2023-03-30T16:20:30.685Z,8.18
2023-03-30T16:22:58.179Z,8.80
2023-03-30T16:25:41.725Z,9.57
2023-03-30T16:28:17.455Z,9.25
2023-03-30T16:30:47.942Z,9.07
2023-03-30T16:33:21.185Z,7.37
2023-03-30T16:35:48.962Z,6.90
2023-03-30T16:38:19.395Z,7.37
2023-03-30T16:40:56.544Z,6.93
2023-03-30T16:43:24.327Z,8.48
2023-03-30T16:45:51.675Z,8.00
2023-03-30T16:48:19.577Z,6.93
2023-03-30T16:50:54.237Z,7.32
2023-03-30T16:53:22.163Z,7.20
2023-03-30T16:55:49.532Z,7.18
2023-03-30T16:58:17.554Z,7.10
2023-03-30T17:00:51.220Z,7.27
2023-03-30T17:03:20.456Z,6.68
2023-03-30T17:05:51.764Z,7.40
2023-03-30T17:08:24.949Z,7.30
2023-03-30T17:10:54.902Z,6.72
2023-03-30T17:13:24.020Z,7.27
2023-03-30T17:15:52.798Z,7.62
2023-03-30T17:18:24.619Z,8.52
2023-03-30T17:20:54.492Z,10.93
2023-03-30T17:23:24.781Z,9.63
2023-03-30T17:25:54.586Z,10.53
2023-03-30T17:28:23.890Z,9.20
2023-03-30T17:30:54.850Z,9.07
2023-03-30T17:33:23.518Z,9.38
2023-03-30T17:35:56.124Z,10.57
2023-03-30T17:38:25.462Z,11.17
2023-03-30T17:40:53.113Z,11.65
2023-03-30T17:43:21.088Z,11.00
2023-03-30T17:45:48.753Z,10.93
2023-03-30T17:48:18.876Z,10.35
2023-03-30T17:50:50.034Z,10.93
2023-03-30T17:53:20.471Z,10.55
2023-03-30T17:55:52.432Z,10.57
2023-03-30T17:58:33.762Z,10.00
2023-03-30T18:01:05.622Z,10.07
2023-03-30T18:03:35.379Z,9.83
2023-03-30T18:06:04.064Z,9.13
2023-03-30T18:08:34.024Z,9.95
2023-03-30T18:11:04.620Z,10.13
2023-03-30T18:13:36.281Z,9.70
2023-03-30T18:16:05.056Z,9.67
2023-03-30T18:18:33.658Z,8.50
2023-03-30T18:21:04.593Z,8.48
2023-03-30T18:23:35.091Z,9.27
2023-03-30T18:26:11.502Z,9.55
2023-03-30T18:28:44.165Z,10.30
2023-03-30T18:31:13.780Z,9.77
2023-03-30T18:33:42.754Z,9.25
2023-03-30T18:36:15.712Z,9.55
2023-03-30T18:38:44.668Z,8.60
2023-03-30T18:41:14.522Z,8.90
2023-03-30T18:43:44.949Z,8.70
2023-03-30T18:46:14.517Z,8.43
2023-03-30T18:48:44.380Z,9.50
2023-03-30T18:51:13.360Z,9.80
2023-03-30T18:53:42.430Z,10.57
2023-03-30T18:56:12.696Z,11.98
2023-03-30T18:58:43.445Z,11.63
2023-03-30T19:01:17.055Z,10.85
2023-03-30T19:03:45.370Z,11.68
2023-03-30T19:06:18.154Z,10.97
2023-03-30T19:08:47.600Z,11.30
2023-03-30T19:11:26.756Z,11.30
2023-03-30T19:13:55.024Z,10.80
2023-03-30T19:16:23.391Z,9.65
2023-03-30T19:18:52.072Z,10.13
2023-03-30T19:21:20.501Z,10.52
2023-03-30T19:23:49.384Z,10.50
2023-03-30T19:26:18.824Z,11.65
2023-03-30T19:28:47.098Z,11.40
2023-03-30T19:31:19.886Z,16.07
2023-03-30T19:33:48.074Z,32.28
2023-03-30T19:36:16.146Z,25.23
2023-03-30T19:38:44.346Z,20.88
2023-03-30T19:41:12.430Z,16.35
2023-03-30T19:43:41.291Z,17.30
2023-03-30T19:46:09.420Z,16.05
2023-03-30T19:48:37.214Z,15.02
2023-03-30T19:51:05.858Z,13.90
2023-03-30T19:53:34.570Z,14.85
2023-03-30T19:56:02.370Z,13.03
2023-03-30T19:58:32.741Z,12.07
2023-03-30T20:01:04.581Z,12.57
2023-03-30T20:03:32.127Z,11.80
2023-03-30T20:05:59.963Z,11.98
2023-03-30T20:08:27.762Z,12.63
2023-03-30T20:10:59.488Z,12.70
2023-03-30T20:13:28.025Z,12.68
2023-03-30T20:15:56.611Z,13.70
2023-03-30T20:18:24.369Z,13.65
2023-03-30T20:20:51.751Z,14.40
2023-03-30T20:23:19.361Z,13.95
2023-03-30T20:25:49.491Z,14.50
2023-03-30T20:28:17.634Z,14.00
2023-03-30T20:30:45.003Z,13.30
2023-03-30T20:33:12.485Z,12.90
2023-03-30T20:35:40.157Z,13.55
2023-03-30T20:38:08.689Z,13.80
2023-03-30T20:40:37.223Z,14.38
2023-03-30T20:43:10.211Z,15.25
2023-03-30T20:45:46.433Z,15.17
2023-03-30T20:48:27.410Z,16.35
2023-03-30T20:50:56.240Z,13.98
2023-03-30T20:53:23.906Z,13.52
2023-03-30T20:55:51.189Z,13.13
2023-03-30T20:58:18.095Z,12.73
2023-03-30T21:00:47.570Z,13.13
2023-03-30T21:03:15.580Z,14.63
2023-03-30T21:05:42.743Z,13.52
2023-03-30T21:08:09.726Z,13.90
2023-03-30T21:10:41.243Z,14.93
2023-03-30T21:13:09.232Z,12.82
2023-03-30T21:15:36.137Z,12.52
2023-03-30T21:18:03.966Z,15.02
2023-03-30T21:20:31.304Z,14.75
2023-03-30T21:22:58.196Z,14.57
2023-03-30T21:25:26.105Z,14.77
2023-03-30T21:27:52.984Z,14.87
2023-03-30T21:30:19.905Z,14.85
2023-03-30T21:32:47.134Z,15.20
2023-03-30T21:35:14.058Z,15.40
2023-03-30T21:37:41.297Z,15.85
2023-03-30T21:40:09.545Z,14.80
2023-03-30T21:42:36.581Z,15.52
2023-03-30T21:45:05.275Z,15.35
2023-03-30T21:47:32.152Z,15.53
2023-03-30T21:49:59.094Z,15.38
2023-03-30T21:52:26.216Z,16.25
2023-03-30T21:54:53.151Z,16.10
2023-03-30T21:57:20.182Z,16.10
2023-03-30T21:59:47.197Z,16.43
2023-03-30T22:02:14.486Z,16.08
2023-03-30T22:04:44.380Z,14.10
2023-03-30T22:07:11.431Z,14.68
2023-03-30T22:09:38.870Z,13.60
2023-03-30T22:12:06.674Z,13.07
2023-03-30T22:14:34.224Z,12.60
2023-03-30T22:17:01.565Z,12.07
2023-03-30T22:19:32.071Z,13.68
2023-03-30T22:21:59.274Z,13.68
2023-03-30T22:24:26.469Z,13.07
2023-03-30T22:26:53.382Z,13.18
2023-03-30T22:29:20.989Z,12.57
2023-03-30T22:31:47.990Z,11.88
2023-03-30T22:34:15.016Z,12.70
2023-03-30T22:36:42.600Z,13.17
2023-03-30T22:39:09.987Z,12.45
2023-03-30T22:41:38.276Z,12.80
2023-03-30T22:44:05.558Z,11.77
2023-03-30T22:46:32.587Z,11.73
2023-03-30T22:49:00.221Z,11.57
2023-03-30T22:51:27.818Z,11.68
2023-03-30T22:53:59.500Z,10.73
2023-03-30T22:56:29.073Z,10.30
2023-03-30T22:58:58.766Z,11.35
2023-03-30T23:01:25.896Z,11.17
2023-03-30T23:03:54.514Z,13.15
2023-03-30T23:06:21.597Z,11.90
2023-03-30T23:08:49.122Z,11.88
2023-03-30T23:11:16.677Z,12.60
2023-03-30T23:13:43.726Z,12.60
2023-03-30T23:16:10.970Z,15.27
2023-03-30T23:18:38.717Z,12.32
2023-03-30T23:21:07.605Z,12.60
2023-03-30T23:23:36.382Z,16.60
2023-03-30T23:26:09.216Z,16.37
2023-03-30T23:28:39.946Z,13.77
2023-03-30T23:31:12.634Z,11.63
2023-03-30T23:33:40.759Z,13.07
2023-03-30T23:36:08.668Z,13.15
2023-03-30T23:38:36.531Z,13.00
2023-03-30T23:41:03.622Z,12.60
2023-03-30T23:43:30.645Z,11.98
2023-03-30T23:45:58.323Z,12.23
2023-03-30T23:48:25.442Z,24.55
2023-03-30T23:50:52.877Z,13.13
2023-03-30T23:53:19.975Z,14.05
2023-03-30T23:55:50.224Z,14.55
2023-03-30T23:58:20.759Z,14.00
